sensor_id;sensor_type;location;lat;lon;timestamp;P1;durP1;ratioP1;P2;durP2;ratioP2
35679;SDS011;21803;53.586;10.040;2023-06-24T04:01:52;1.85;;;1.70;;
35679;SDS011;21803;53.586;10.040;2023-06-24T04:04:17;1.83;;;1.63;;
35679;SDS011;21803;53.586;10.040;2023-06-24T04:06:43;1.77;;;1.50;;
35679;SDS011;21803;53.586;10.040;2023-06-24T04:09:08;1.90;;;1.70;;
35679;SDS011;21803;53.586;10.040;2023-06-24T04:11:35;1.67;;;1.58;;
35679;SDS011;21803;53.586;10.040;2023-06-24T04:14:00;2.40;;;2.00;;
35679;SDS011;21803;53.586;10.040;2023-06-24T04:16:26;1.60;;;1.50;;
35679;SDS011;21803;53.586;10.040;2023-06-24T04:18:52;1.70;;;1.60;;
35679;SDS011;21803;53.586;10.040;2023-06-24T04:21:17;1.50;;;1.40;;
35679;SDS011;21803;53.586;10.040;2023-06-24T04:23:43;1.95;;;1.80;;
35679;SDS011;21803;53.586;10.040;2023-06-24T04:26:09;3.08;;;1.85;;
35679;SDS011;21803;53.586;10.040;2023-06-24T04:28:34;2.03;;;1.73;;
35679;SDS011;21803;53.586;10.040;2023-06-24T04:31:00;2.10;;;1.83;;
35679;SDS011;21803;53.586;10.040;2023-06-24T04:33:26;2.08;;;1.88;;
35679;SDS011;21803;53.586;10.040;2023-06-24T04:35:51;1.98;;;1.75;;
35679;SDS011;21803;53.586;10.040;2023-06-24T04:38:17;2.17;;;1.70;;
35679;SDS011;21803;53.586;10.040;2023-06-24T04:40:43;2.10;;;1.85;;
35679;SDS011;21803;53.586;10.040;2023-06-24T04:43:09;1.70;;;1.60;;
35679;SDS011;21803;53.586;10.040;2023-06-24T04:45:35;1.73;;;1.60;;
35679;SDS011;21803;53.586;10.040;2023-06-24T04:48:01;1.60;;;1.50;;
35679;SDS011;21803;53.586;10.040;2023-06-24T04:50:26;1.92;;;1.73;;
35679;SDS011;21803;53.586;10.040;2023-06-24T04:52:52;2.72;;;1.95;;
35679;SDS011;21803;53.586;10.040;2023-06-24T04:55:20;2.00;;;1.80;;
35679;SDS011;21803;53.586;10.040;2023-06-24T04:57:46;1.70;;;1.60;;
35679;SDS011;21803;53.586;10.040;2023-06-24T05:00:13;1.92;;;1.70;;
35679;SDS011;21803;53.586;10.040;2023-06-24T05:02:39;1.63;;;1.52;;
35679;SDS011;21803;53.586;10.040;2023-06-24T05:05:04;2.10;;;1.90;;
35679;SDS011;21803;53.586;10.040;2023-06-24T05:07:30;2.28;;;1.80;;
35679;SDS011;21803;53.586;10.040;2023-06-24T05:09:56;1.90;;;1.80;;
35679;SDS011;21803;53.586;10.040;2023-06-24T05:12:21;1.60;;;1.45;;
35679;SDS011;21803;53.586;10.040;2023-06-24T05:14:50;1.92;;;1.70;;
35679;SDS011;21803;53.586;10.040;2023-06-24T05:17:19;2.35;;;1.75;;
35679;SDS011;21803;53.586;10.040;2023-06-24T05:19:45;1.80;;;1.55;;
35679;SDS011;21803;53.586;10.040;2023-06-24T05:22:11;2.05;;;1.65;;
35679;SDS011;21803;53.586;10.040;2023-06-24T05:24:36;2.15;;;1.70;;
35679;SDS011;21803;53.586;10.040;2023-06-24T05:27:05;1.50;;;1.40;;
35679;SDS011;21803;53.586;10.040;2023-06-24T05:29:32;1.92;;;1.70;;
35679;SDS011;21803;53.586;10.040;2023-06-24T05:32:00;1.80;;;1.60;;
35679;SDS011;21803;53.586;10.040;2023-06-24T05:34:28;1.85;;;1.63;;
35679;SDS011;21803;53.586;10.040;2023-06-24T05:36:54;1.60;;;1.50;;
35679;SDS011;21803;53.586;10.040;2023-06-24T05:39:20;1.65;;;1.55;;
35679;SDS011;21803;53.586;10.040;2023-06-24T05:41:45;1.60;;;1.50;;
35679;SDS011;21803;53.586;10.040;2023-06-24T05:44:13;1.50;;;1.40;;
35679;SDS011;21803;53.586;10.040;2023-06-24T05:46:39;1.60;;;1.50;;
35679;SDS011;21803;53.586;10.040;2023-06-24T05:49:05;1.55;;;1.45;;
35679;SDS011;21803;53.586;10.040;2023-06-24T05:51:30;1.77;;;1.45;;
35679;SDS011;21803;53.586;10.040;2023-06-24T05:53:56;1.70;;;1.60;;
35679;SDS011;21803;53.586;10.040;2023-06-24T05:56:21;1.35;;;1.25;;
35679;SDS011;21803;53.586;10.040;2023-06-24T05:58:47;1.70;;;1.55;;
35679;SDS011;21803;53.586;10.040;2023-06-24T06:01:13;1.73;;;1.60;;
35679;SDS011;21803;53.586;10.040;2023-06-24T06:03:39;1.70;;;1.60;;
35679;SDS011;21803;53.586;10.040;2023-06-24T06:06:04;1.88;;;1.42;;
35679;SDS011;21803;53.586;10.040;2023-06-24T06:08:30;1.63;;;1.50;;
35679;SDS011;21803;53.586;10.040;2023-06-24T06:10:55;1.45;;;1.30;;
35679;SDS011;21803;53.586;10.040;2023-06-24T06:13:21;1.48;;;1.38;;
35679;SDS011;21803;53.586;10.040;2023-06-24T06:15:46;1.65;;;1.50;;
35679;SDS011;21803;53.586;10.040;2023-06-24T06:18:12;1.50;;;1.40;;
35679;SDS011;21803;53.586;10.040;2023-06-24T06:20:38;1.60;;;1.50;;
35679;SDS011;21803;53.586;10.040;2023-06-24T06:23:03;1.75;;;1.65;;
35679;SDS011;21803;53.586;10.040;2023-06-24T06:25:29;1.60;;;1.50;;
35679;SDS011;21803;53.586;10.040;2023-06-24T06:27:54;1.52;;;1.30;;
35679;SDS011;21803;53.586;10.040;2023-06-24T06:30:20;1.65;;;1.55;;
35679;SDS011;21803;53.586;10.040;2023-06-24T06:32:45;1.48;;;1.38;;
35679;SDS011;21803;53.586;10.040;2023-06-24T06:35:11;1.70;;;1.50;;
35679;SDS011;21803;53.586;10.040;2023-06-24T06:37:37;1.60;;;1.50;;
35679;SDS011;21803;53.586;10.040;2023-06-24T06:40:02;1.40;;;1.30;;
35679;SDS011;21803;53.586;10.040;2023-06-24T06:42:29;1.40;;;1.30;;
35679;SDS011;21803;53.586;10.040;2023-06-24T06:44:55;1.35;;;1.25;;
35679;SDS011;21803;53.586;10.040;2023-06-24T06:47:20;1.25;;;1.15;;
35679;SDS011;21803;53.586;10.040;2023-06-24T06:49:46;1.58;;;1.40;;
35679;SDS011;21803;53.586;10.040;2023-06-24T06:52:11;2.58;;;1.60;;
35679;SDS011;21803;53.586;10.040;2023-06-24T06:54:37;1.45;;;1.35;;
35679;SDS011;21803;53.586;10.040;2023-06-24T06:57:03;1.45;;;1.30;;
35679;SDS011;21803;53.586;10.040;2023-06-24T06:59:29;1.50;;;1.40;;
35679;SDS011;21803;53.586;10.040;2023-06-24T07:01:55;1.33;;;1.23;;
35679;SDS011;21803;53.586;10.040;2023-06-24T07:04:21;1.55;;;1.30;;
35679;SDS011;21803;53.586;10.040;2023-06-24T07:06:47;1.65;;;1.55;;
35679;SDS011;21803;53.586;10.040;2023-06-24T07:09:13;1.50;;;1.40;;
35679;SDS011;21803;53.586;10.040;2023-06-24T07:11:38;1.50;;;1.40;;
35679;SDS011;21803;53.586;10.040;2023-06-24T07:14:04;1.48;;;1.38;;
35679;SDS011;21803;53.586;10.040;2023-06-24T07:16:29;1.70;;;1.50;;
35679;SDS011;21803;53.586;10.040;2023-06-24T07:18:55;1.55;;;1.45;;
35679;SDS011;21803;53.586;10.040;2023-06-24T07:21:20;1.77;;;1.38;;
35679;SDS011;21803;53.586;10.040;2023-06-24T07:23:47;1.55;;;1.45;;
35679;SDS011;21803;53.586;10.040;2023-06-24T07:26:12;1.65;;;1.40;;
35679;SDS011;21803;53.586;10.040;2023-06-24T07:28:38;1.60;;;1.50;;
35679;SDS011;21803;53.586;10.040;2023-06-24T07:31:03;1.40;;;1.30;;
35679;SDS011;21803;53.586;10.040;2023-06-24T07:33:29;1.20;;;1.10;;
35679;SDS011;21803;53.586;10.040;2023-06-24T07:35:55;1.40;;;1.30;;
35679;SDS011;21803;53.586;10.040;2023-06-24T07:38:21;1.45;;;1.30;;
35679;SDS011;21803;53.586;10.040;2023-06-24T07:40:47;1.80;;;1.40;;
35679;SDS011;21803;53.586;10.040;2023-06-24T07:43:13;1.50;;;1.40;;
35679;SDS011;21803;53.586;10.040;2023-06-24T07:45:38;1.52;;;1.42;;
35679;SDS011;21803;53.586;10.040;2023-06-24T07:48:04;1.42;;;1.33;;
35679;SDS011;21803;53.586;10.040;2023-06-24T07:50:30;1.40;;;1.30;;
35679;SDS011;21803;53.586;10.040;2023-06-24T07:52:56;1.52;;;1.38;;
35679;SDS011;21803;53.586;10.040;2023-06-24T07:55:22;1.35;;;1.25;;
35679;SDS011;21803;53.586;10.040;2023-06-24T07:57:47;1.75;;;1.45;;
35679;SDS011;21803;53.586;10.040;2023-06-24T08:00:13;2.15;;;1.65;;
35679;SDS011;21803;53.586;10.040;2023-06-24T08:02:40;1.70;;;1.60;;
35679;SDS011;21803;53.586;10.040;2023-06-24T08:05:06;2.58;;;1.45;;
35679;SDS011;21803;53.586;10.040;2023-06-24T08:07:32;3.67;;;1.90;;
35679;SDS011;21803;53.586;10.040;2023-06-24T08:09:58;3.90;;;2.33;;
35679;SDS011;21803;53.586;10.040;2023-06-24T08:12:23;2.53;;;1.90;;
35679;SDS011;21803;53.586;10.040;2023-06-24T08:14:49;2.75;;;2.28;;
35679;SDS011;21803;53.586;10.040;2023-06-24T08:17:14;3.45;;;2.00;;
35679;SDS011;21803;53.586;10.040;2023-06-24T08:19:40;3.17;;;2.20;;
35679;SDS011;21803;53.586;10.040;2023-06-24T08:22:05;3.75;;;2.42;;
35679;SDS011;21803;53.586;10.040;2023-06-24T08:24:31;3.38;;;2.17;;
35679;SDS011;21803;53.586;10.040;2023-06-24T08:26:57;3.50;;;2.42;;
35679;SDS011;21803;53.586;10.040;2023-06-24T08:29:22;4.45;;;2.45;;
35679;SDS011;21803;53.586;10.040;2023-06-24T08:31:48;4.50;;;2.17;;
35679;SDS011;21803;53.586;10.040;2023-06-24T08:34:13;4.25;;;2.42;;
35679;SDS011;21803;53.586;10.040;2023-06-24T08:36:39;3.85;;;2.80;;
35679;SDS011;21803;53.586;10.040;2023-06-24T08:39:04;3.83;;;2.78;;
35679;SDS011;21803;53.586;10.040;2023-06-24T08:41:30;2.88;;;2.17;;
35679;SDS011;21803;53.586;10.040;2023-06-24T08:43:55;3.20;;;2.58;;
35679;SDS011;21803;53.586;10.040;2023-06-24T08:46:21;4.05;;;2.60;;
35679;SDS011;21803;53.586;10.040;2023-06-24T08:48:49;3.00;;;2.60;;
35679;SDS011;21803;53.586;10.040;2023-06-24T08:51:24;2.72;;;2.00;;
35679;SDS011;21803;53.586;10.040;2023-06-24T08:53:54;3.08;;;2.50;;
35679;SDS011;21803;53.586;10.040;2023-06-24T08:56:20;3.17;;;2.47;;
35679;SDS011;21803;53.586;10.040;2023-06-24T08:58:46;3.22;;;2.50;;
35679;SDS011;21803;53.586;10.040;2023-06-24T09:01:11;3.10;;;2.20;;
35679;SDS011;21803;53.586;10.040;2023-06-24T09:03:37;3.55;;;2.50;;
35679;SDS011;21803;53.586;10.040;2023-06-24T09:06:03;3.08;;;2.38;;
35679;SDS011;21803;53.586;10.040;2023-06-24T09:08:28;3.45;;;2.63;;
35679;SDS011;21803;53.586;10.040;2023-06-24T09:10:54;2.92;;;2.53;;
35679;SDS011;21803;53.586;10.040;2023-06-24T09:13:27;3.83;;;2.72;;
35679;SDS011;21803;53.586;10.040;2023-06-24T09:16:10;3.92;;;2.70;;
35679;SDS011;21803;53.586;10.040;2023-06-24T09:18:37;3.95;;;2.70;;
35679;SDS011;21803;53.586;10.040;2023-06-24T09:21:03;3.13;;;2.25;;
35679;SDS011;21803;53.586;10.040;2023-06-24T09:23:28;3.47;;;2.63;;
35679;SDS011;21803;53.586;10.040;2023-06-24T09:25:57;3.85;;;2.60;;
35679;SDS011;21803;53.586;10.040;2023-06-24T09:28:26;5.18;;;2.35;;
35679;SDS011;21803;53.586;10.040;2023-06-24T09:31:08;3.97;;;2.50;;
35679;SDS011;21803;53.586;10.040;2023-06-24T09:33:34;3.58;;;2.38;;
35679;SDS011;21803;53.586;10.040;2023-06-24T09:36:03;3.58;;;2.45;;
35679;SDS011;21803;53.586;10.040;2023-06-24T09:38:34;3.28;;;2.40;;
35679;SDS011;21803;53.586;10.040;2023-06-24T09:41:03;3.80;;;2.55;;
35679;SDS011;21803;53.586;10.040;2023-06-24T09:43:35;3.88;;;2.78;;
35679;SDS011;21803;53.586;10.040;2023-06-24T09:46:02;2.58;;;2.30;;
35679;SDS011;21803;53.586;10.040;2023-06-24T09:48:29;3.38;;;2.63;;
35679;SDS011;21803;53.586;10.040;2023-06-24T09:51:02;3.50;;;2.40;;
35679;SDS011;21803;53.586;10.040;2023-06-24T09:53:32;4.65;;;2.80;;
35679;SDS011;21803;53.586;10.040;2023-06-24T09:55:59;3.85;;;2.85;;
35679;SDS011;21803;53.586;10.040;2023-06-24T09:58:26;3.22;;;2.50;;
35679;SDS011;21803;53.586;10.040;2023-06-24T10:00:55;3.30;;;2.65;;
35679;SDS011;21803;53.586;10.040;2023-06-24T10:03:21;4.18;;;2.67;;
35679;SDS011;21803;53.586;10.040;2023-06-24T10:05:46;4.25;;;2.20;;
35679;SDS011;21803;53.586;10.040;2023-06-24T10:08:13;2.60;;;2.40;;
35679;SDS011;21803;53.586;10.040;2023-06-24T10:10:38;3.97;;;2.45;;
35679;SDS011;21803;53.586;10.040;2023-06-24T10:13:04;3.40;;;2.85;;
35679;SDS011;21803;53.586;10.040;2023-06-24T10:15:31;4.20;;;2.70;;
35679;SDS011;21803;53.586;10.040;2023-06-24T10:18:00;3.58;;;2.80;;
35679;SDS011;21803;53.586;10.040;2023-06-24T10:20:27;3.22;;;2.83;;
35679;SDS011;21803;53.586;10.040;2023-06-24T10:22:53;3.63;;;2.92;;
35679;SDS011;21803;53.586;10.040;2023-06-24T10:25:19;3.88;;;2.70;;
35679;SDS011;21803;53.586;10.040;2023-06-24T10:27:46;2.70;;;2.45;;
35679;SDS011;21803;53.586;10.040;2023-06-24T10:30:19;2.92;;;2.55;;
35679;SDS011;21803;53.586;10.040;2023-06-24T10:32:50;4.03;;;2.63;;
35679;SDS011;21803;53.586;10.040;2023-06-24T10:35:26;3.63;;;2.80;;
35679;SDS011;21803;53.586;10.040;2023-06-24T10:37:58;4.55;;;3.08;;
35679;SDS011;21803;53.586;10.040;2023-06-24T10:40:35;3.45;;;2.90;;
35679;SDS011;21803;53.586;10.040;2023-06-24T10:45:48;3.40;;;2.97;;
35679;SDS011;21803;53.586;10.040;2023-06-24T10:48:15;4.90;;;2.88;;
35679;SDS011;21803;53.586;10.040;2023-06-24T10:50:40;3.40;;;3.03;;
35679;SDS011;21803;53.586;10.040;2023-06-24T10:53:08;4.43;;;3.15;;
35679;SDS011;21803;53.586;10.040;2023-06-24T10:55:33;4.82;;;3.10;;
35679;SDS011;21803;53.586;10.040;2023-06-24T10:58:08;4.53;;;3.03;;
35679;SDS011;21803;53.586;10.040;2023-06-24T11:00:34;6.07;;;3.65;;
35679;SDS011;21803;53.586;10.040;2023-06-24T11:03:09;4.88;;;3.42;;
35679;SDS011;21803;53.586;10.040;2023-06-24T11:05:39;3.50;;;2.90;;
35679;SDS011;21803;53.586;10.040;2023-06-24T11:08:06;5.40;;;3.15;;
35679;SDS011;21803;53.586;10.040;2023-06-24T11:10:31;3.55;;;3.20;;
35679;SDS011;21803;53.586;10.040;2023-06-24T11:12:57;3.42;;;2.90;;
35679;SDS011;21803;53.586;10.040;2023-06-24T11:15:29;3.38;;;2.75;;
35679;SDS011;21803;53.586;10.040;2023-06-24T11:17:55;3.50;;;2.83;;
35679;SDS011;21803;53.586;10.040;2023-06-24T11:20:20;4.18;;;2.92;;
35679;SDS011;21803;53.586;10.040;2023-06-24T11:22:46;3.97;;;2.95;;
35679;SDS011;21803;53.586;10.040;2023-06-24T11:25:14;4.78;;;3.05;;
35679;SDS011;21803;53.586;10.040;2023-06-24T11:27:44;3.22;;;2.85;;
35679;SDS011;21803;53.586;10.040;2023-06-24T11:30:10;4.13;;;2.83;;
35679;SDS011;21803;53.586;10.040;2023-06-24T11:32:40;3.58;;;2.70;;
35679;SDS011;21803;53.586;10.040;2023-06-24T11:35:10;4.82;;;2.90;;
35679;SDS011;21803;53.586;10.040;2023-06-24T11:37:37;4.05;;;2.95;;
35679;SDS011;21803;53.586;10.040;2023-06-24T11:40:06;3.75;;;3.00;;
35679;SDS011;21803;53.586;10.040;2023-06-24T11:42:35;5.47;;;3.03;;
35679;SDS011;21803;53.586;10.040;2023-06-24T11:45:08;4.18;;;2.88;;
35679;SDS011;21803;53.586;10.040;2023-06-24T11:47:36;4.03;;;2.70;;
35679;SDS011;21803;53.586;10.040;2023-06-24T11:50:03;3.58;;;2.83;;
35679;SDS011;21803;53.586;10.040;2023-06-24T11:52:37;3.60;;;2.70;;
35679;SDS011;21803;53.586;10.040;2023-06-24T11:55:03;3.40;;;2.95;;
35679;SDS011;21803;53.586;10.040;2023-06-24T12:00:19;5.30;;;3.00;;
35679;SDS011;21803;53.586;10.040;2023-06-24T12:02:50;4.90;;;3.05;;
35679;SDS011;21803;53.586;10.040;2023-06-24T12:05:35;3.05;;;2.75;;
35679;SDS011;21803;53.586;10.040;2023-06-24T12:08:06;3.58;;;2.92;;
35679;SDS011;21803;53.586;10.040;2023-06-24T12:10:35;4.22;;;2.97;;
35679;SDS011;21803;53.586;10.040;2023-06-24T12:13:02;4.03;;;3.05;;
35679;SDS011;21803;53.586;10.040;2023-06-24T12:15:29;3.85;;;3.10;;
35679;SDS011;21803;53.586;10.040;2023-06-24T12:17:55;3.80;;;2.88;;
35679;SDS011;21803;53.586;10.040;2023-06-24T12:20:21;4.45;;;3.30;;
35679;SDS011;21803;53.586;10.040;2023-06-24T12:22:47;3.33;;;2.78;;
35679;SDS011;21803;53.586;10.040;2023-06-24T12:25:13;3.33;;;3.03;;
35679;SDS011;21803;53.586;10.040;2023-06-24T12:27:41;4.53;;;3.30;;
35679;SDS011;21803;53.586;10.040;2023-06-24T12:30:07;3.47;;;3.17;;
35679;SDS011;21803;53.586;10.040;2023-06-24T12:32:34;7.18;;;2.83;;
35679;SDS011;21803;53.586;10.040;2023-06-24T12:34:59;3.47;;;2.90;;
35679;SDS011;21803;53.586;10.040;2023-06-24T12:37:25;4.00;;;3.10;;
35679;SDS011;21803;53.586;10.040;2023-06-24T12:39:53;4.60;;;3.00;;
35679;SDS011;21803;53.586;10.040;2023-06-24T12:42:19;3.90;;;3.03;;
35679;SDS011;21803;53.586;10.040;2023-06-24T12:44:44;3.67;;;3.03;;
35679;SDS011;21803;53.586;10.040;2023-06-24T12:47:10;3.97;;;3.00;;
35679;SDS011;21803;53.586;10.040;2023-06-24T12:49:35;3.42;;;3.10;;
35679;SDS011;21803;53.586;10.040;2023-06-24T12:52:01;3.80;;;2.95;;
35679;SDS011;21803;53.586;10.040;2023-06-24T12:54:26;3.92;;;3.20;;
35679;SDS011;21803;53.586;10.040;2023-06-24T12:56:52;3.40;;;3.10;;
35679;SDS011;21803;53.586;10.040;2023-06-24T12:59:17;5.35;;;3.28;;
35679;SDS011;21803;53.586;10.040;2023-06-24T13:01:43;4.45;;;2.88;;
35679;SDS011;21803;53.586;10.040;2023-06-24T13:04:10;4.15;;;3.08;;
35679;SDS011;21803;53.586;10.040;2023-06-24T13:06:36;3.78;;;3.10;;
35679;SDS011;21803;53.586;10.040;2023-06-24T13:09:01;3.63;;;3.17;;
35679;SDS011;21803;53.586;10.040;2023-06-24T13:11:27;4.15;;;3.20;;
35679;SDS011;21803;53.586;10.040;2023-06-24T13:13:53;3.50;;;2.80;;
35679;SDS011;21803;53.586;10.040;2023-06-24T13:16:19;3.78;;;3.20;;
35679;SDS011;21803;53.586;10.040;2023-06-24T13:18:44;3.58;;;2.97;;
35679;SDS011;21803;53.586;10.040;2023-06-24T13:21:10;3.65;;;2.67;;
35679;SDS011;21803;53.586;10.040;2023-06-24T13:23:35;2.95;;;2.63;;
35679;SDS011;21803;53.586;10.040;2023-06-24T13:26:03;3.42;;;2.92;;
35679;SDS011;21803;53.586;10.040;2023-06-24T13:28:29;3.15;;;2.85;;
35679;SDS011;21803;53.586;10.040;2023-06-24T13:30:56;3.80;;;2.88;;
35679;SDS011;21803;53.586;10.040;2023-06-24T13:33:22;3.88;;;3.10;;
35679;SDS011;21803;53.586;10.040;2023-06-24T13:35:48;4.18;;;3.08;;
35679;SDS011;21803;53.586;10.040;2023-06-24T13:38:14;5.03;;;3.13;;
35679;SDS011;21803;53.586;10.040;2023-06-24T13:40:40;3.75;;;2.80;;
35679;SDS011;21803;53.586;10.040;2023-06-24T13:43:05;4.60;;;2.97;;
35679;SDS011;21803;53.586;10.040;2023-06-24T13:45:31;4.88;;;3.13;;
35679;SDS011;21803;53.586;10.040;2023-06-24T13:47:56;3.78;;;3.13;;
35679;SDS011;21803;53.586;10.040;2023-06-24T13:50:22;4.05;;;2.80;;
35679;SDS011;21803;53.586;10.040;2023-06-24T13:52:48;4.38;;;3.08;;
35679;SDS011;21803;53.586;10.040;2023-06-24T13:55:13;4.32;;;3.00;;
35679;SDS011;21803;53.586;10.040;2023-06-24T13:57:39;4.28;;;3.00;;
35679;SDS011;21803;53.586;10.040;2023-06-24T14:00:05;3.45;;;2.95;;
35679;SDS011;21803;53.586;10.040;2023-06-24T14:02:31;4.57;;;2.75;;
35679;SDS011;21803;53.586;10.040;2023-06-24T14:04:56;3.35;;;2.40;;
35679;SDS011;21803;53.586;10.040;2023-06-24T14:07:22;4.10;;;2.80;;
35679;SDS011;21803;53.586;10.040;2023-06-24T14:09:47;3.88;;;2.90;;
35679;SDS011;21803;53.586;10.040;2023-06-24T14:12:13;3.20;;;2.85;;
35679;SDS011;21803;53.586;10.040;2023-06-24T14:14:38;4.00;;;3.30;;
35679;SDS011;21803;53.586;10.040;2023-06-24T14:17:05;5.95;;;2.95;;
35679;SDS011;21803;53.586;10.040;2023-06-24T14:19:36;3.88;;;2.65;;
35679;SDS011;21803;53.586;10.040;2023-06-24T14:22:03;3.35;;;2.95;;
35679;SDS011;21803;53.586;10.040;2023-06-24T14:24:29;5.53;;;2.60;;
35679;SDS011;21803;53.586;10.040;2023-06-24T14:26:54;3.85;;;2.90;;
35679;SDS011;21803;53.586;10.040;2023-06-24T14:29:20;3.25;;;2.83;;
35679;SDS011;21803;53.586;10.040;2023-06-24T14:31:45;3.42;;;2.88;;
35679;SDS011;21803;53.586;10.040;2023-06-24T14:34:11;3.05;;;2.67;;
35679;SDS011;21803;53.586;10.040;2023-06-24T14:36:36;3.15;;;2.58;;
35679;SDS011;21803;53.586;10.040;2023-06-24T14:39:02;3.55;;;2.80;;
35679;SDS011;21803;53.586;10.040;2023-06-24T14:41:28;3.72;;;2.70;;
35679;SDS011;21803;53.586;10.040;2023-06-24T14:43:53;3.05;;;2.40;;
35679;SDS011;21803;53.586;10.040;2023-06-24T14:46:19;3.33;;;2.65;;
35679;SDS011;21803;53.586;10.040;2023-06-24T14:48:44;3.22;;;2.70;;
35679;SDS011;21803;53.586;10.040;2023-06-24T14:51:10;3.83;;;2.83;;
35679;SDS011;21803;53.586;10.040;2023-06-24T14:53:35;3.53;;;2.75;;
35679;SDS011;21803;53.586;10.040;2023-06-24T14:56:01;3.78;;;2.50;;
35679;SDS011;21803;53.586;10.040;2023-06-24T14:58:26;3.25;;;2.30;;
35679;SDS011;21803;53.586;10.040;2023-06-24T15:00:52;3.42;;;2.60;;
35679;SDS011;21803;53.586;10.040;2023-06-24T15:03:17;3.20;;;2.58;;
35679;SDS011;21803;53.586;10.040;2023-06-24T15:05:43;4.38;;;2.92;;
35679;SDS011;21803;53.586;10.040;2023-06-24T15:08:09;3.53;;;2.90;;
35679;SDS011;21803;53.586;10.040;2023-06-24T15:10:35;3.88;;;2.70;;
35679;SDS011;21803;53.586;10.040;2023-06-24T15:13:00;2.95;;;2.65;;
35679;SDS011;21803;53.586;10.040;2023-06-24T15:15:26;3.10;;;2.65;;
35679;SDS011;21803;53.586;10.040;2023-06-24T15:17:51;3.03;;;2.70;;
35679;SDS011;21803;53.586;10.040;2023-06-24T15:20:17;3.15;;;2.47;;
35679;SDS011;21803;53.586;10.040;2023-06-24T15:22:42;3.20;;;2.50;;
35679;SDS011;21803;53.586;10.040;2023-06-24T15:25:08;3.28;;;2.65;;
35679;SDS011;21803;53.586;10.040;2023-06-24T15:27:34;2.85;;;2.55;;
35679;SDS011;21803;53.586;10.040;2023-06-24T15:29:59;4.22;;;2.35;;
35679;SDS011;21803;53.586;10.040;2023-06-24T15:32:25;3.03;;;2.40;;
35679;SDS011;21803;53.586;10.040;2023-06-24T15:34:51;2.83;;;2.50;;
35679;SDS011;21803;53.586;10.040;2023-06-24T15:37:16;3.28;;;2.70;;
35679;SDS011;21803;53.586;10.040;2023-06-24T15:39:43;2.67;;;2.42;;
35679;SDS011;21803;53.586;10.040;2023-06-24T15:42:09;3.30;;;2.70;;
35679;SDS011;21803;53.586;10.040;2023-06-24T15:44:36;3.42;;;2.83;;
35679;SDS011;21803;53.586;10.040;2023-06-24T15:47:03;3.30;;;2.80;;
35679;SDS011;21803;53.586;10.040;2023-06-24T15:49:29;3.88;;;2.70;;
35679;SDS011;21803;53.586;10.040;2023-06-24T15:51:55;3.25;;;2.95;;
35679;SDS011;21803;53.586;10.040;2023-06-24T15:54:20;3.42;;;2.63;;
35679;SDS011;21803;53.586;10.040;2023-06-24T15:56:46;2.60;;;2.30;;
35679;SDS011;21803;53.586;10.040;2023-06-24T15:59:11;4.38;;;3.15;;
35679;SDS011;21803;53.586;10.040;2023-06-24T16:01:37;3.30;;;3.00;;
35679;SDS011;21803;53.586;10.040;2023-06-24T16:04:03;3.75;;;3.28;;
35679;SDS011;21803;53.586;10.040;2023-06-24T16:06:29;3.15;;;2.80;;
35679;SDS011;21803;53.586;10.040;2023-06-24T16:08:54;3.25;;;2.83;;
35679;SDS011;21803;53.586;10.040;2023-06-24T16:11:21;4.38;;;2.90;;
35679;SDS011;21803;53.586;10.040;2023-06-24T16:13:47;3.08;;;2.78;;
35679;SDS011;21803;53.586;10.040;2023-06-24T16:16:12;3.70;;;2.83;;
35679;SDS011;21803;53.586;10.040;2023-06-24T16:18:38;3.28;;;2.70;;
35679;SDS011;21803;53.586;10.040;2023-06-24T16:21:04;3.85;;;3.03;;
35679;SDS011;21803;53.586;10.040;2023-06-24T16:23:30;3.90;;;2.88;;
35679;SDS011;21803;53.586;10.040;2023-06-24T16:25:55;3.28;;;2.97;;
35679;SDS011;21803;53.586;10.040;2023-06-24T16:28:21;3.83;;;3.25;;
35679;SDS011;21803;53.586;10.040;2023-06-24T16:30:46;3.75;;;3.00;;
35679;SDS011;21803;53.586;10.040;2023-06-24T16:33:12;5.93;;;3.20;;
35679;SDS011;21803;53.586;10.040;2023-06-24T16:35:38;3.42;;;3.10;;
35679;SDS011;21803;53.586;10.040;2023-06-24T16:38:03;3.75;;;3.25;;
35679;SDS011;21803;53.586;10.040;2023-06-24T16:40:29;3.67;;;3.10;;
35679;SDS011;21803;53.586;10.040;2023-06-24T16:42:54;2.85;;;2.58;;
35679;SDS011;21803;53.586;10.040;2023-06-24T16:45:20;8.15;;;3.15;;
35679;SDS011;21803;53.586;10.040;2023-06-24T16:47:45;3.50;;;3.10;;
35679;SDS011;21803;53.586;10.040;2023-06-24T16:50:11;4.05;;;3.00;;
35679;SDS011;21803;53.586;10.040;2023-06-24T16:52:37;4.55;;;3.33;;
35679;SDS011;21803;53.586;10.040;2023-06-24T16:55:03;4.07;;;3.38;;
35679;SDS011;21803;53.586;10.040;2023-06-24T16:57:28;4.18;;;3.10;;
35679;SDS011;21803;53.586;10.040;2023-06-24T16:59:54;4.13;;;3.55;;
35679;SDS011;21803;53.586;10.040;2023-06-24T17:02:20;5.10;;;3.55;;
35679;SDS011;21803;53.586;10.040;2023-06-24T17:04:45;4.30;;;3.40;;
35679;SDS011;21803;53.586;10.040;2023-06-24T17:07:11;3.85;;;3.22;;
35679;SDS011;21803;53.586;10.040;2023-06-24T17:09:36;4.10;;;3.15;;
35679;SDS011;21803;53.586;10.040;2023-06-24T17:12:02;3.88;;;3.33;;
35679;SDS011;21803;53.586;10.040;2023-06-24T17:14:28;4.53;;;3.13;;
35679;SDS011;21803;53.586;10.040;2023-06-24T17:16:54;5.57;;;3.20;;
35679;SDS011;21803;53.586;10.040;2023-06-24T17:19:19;4.40;;;3.50;;
35679;SDS011;21803;53.586;10.040;2023-06-24T17:21:45;4.72;;;3.30;;
35679;SDS011;21803;53.586;10.040;2023-06-24T17:24:10;3.90;;;2.97;;
35679;SDS011;21803;53.586;10.040;2023-06-24T17:26:36;3.92;;;3.40;;
35679;SDS011;21803;53.586;10.040;2023-06-24T17:29:01;5.20;;;3.47;;
35679;SDS011;21803;53.586;10.040;2023-06-24T17:31:27;4.20;;;3.20;;
35679;SDS011;21803;53.586;10.040;2023-06-24T17:33:52;4.72;;;3.22;;
35679;SDS011;21803;53.586;10.040;2023-06-24T17:36:18;4.75;;;3.55;;
35679;SDS011;21803;53.586;10.040;2023-06-24T17:38:44;5.47;;;3.97;;
35679;SDS011;21803;53.586;10.040;2023-06-24T17:41:10;6.18;;;3.92;;
35679;SDS011;21803;53.586;10.040;2023-06-24T17:43:35;5.25;;;3.50;;
35679;SDS011;21803;53.586;10.040;2023-06-24T17:46:01;5.43;;;3.90;;
35679;SDS011;21803;53.586;10.040;2023-06-24T17:48:26;4.30;;;3.03;;
35679;SDS011;21803;53.586;10.040;2023-06-24T17:50:52;4.93;;;3.38;;
35679;SDS011;21803;53.586;10.040;2023-06-24T17:53:17;5.15;;;3.47;;
35679;SDS011;21803;53.586;10.040;2023-06-24T17:55:43;3.95;;;3.35;;
35679;SDS011;21803;53.586;10.040;2023-06-24T17:58:09;6.78;;;3.78;;
35679;SDS011;21803;53.586;10.040;2023-06-24T18:00:34;5.70;;;3.95;;
35679;SDS011;21803;53.586;10.040;2023-06-24T18:03:07;5.85;;;4.35;;
35679;SDS011;21803;53.586;10.040;2023-06-24T18:05:35;5.72;;;4.30;;
35679;SDS011;21803;53.586;10.040;2023-06-24T18:08:01;5.05;;;4.07;;
35679;SDS011;21803;53.586;10.040;2023-06-24T18:10:27;6.97;;;4.57;;
35679;SDS011;21803;53.586;10.040;2023-06-24T18:12:53;6.07;;;4.43;;
35679;SDS011;21803;53.586;10.040;2023-06-24T18:15:18;6.18;;;4.40;;
35679;SDS011;21803;53.586;10.040;2023-06-24T18:17:44;4.90;;;4.18;;
35679;SDS011;21803;53.586;10.040;2023-06-24T18:20:10;4.60;;;3.78;;
35679;SDS011;21803;53.586;10.040;2023-06-24T18:22:35;4.35;;;3.63;;
35679;SDS011;21803;53.586;10.040;2023-06-24T18:25:01;6.82;;;3.55;;
35679;SDS011;21803;53.586;10.040;2023-06-24T18:27:27;3.97;;;3.58;;
35679;SDS011;21803;53.586;10.040;2023-06-24T18:29:53;7.18;;;3.67;;
35679;SDS011;21803;53.586;10.040;2023-06-24T18:32:18;5.28;;;3.97;;
35679;SDS011;21803;53.586;10.040;2023-06-24T18:34:44;5.28;;;3.33;;